Time;durP1;ratioP1;P1;durP2;ratioP2;P2;SDS_P1;SDS_P2;PMS_P1;PMS_P2;Temp;Humidity;BMP_temperature;BMP_pressure;BME280_temperature;BME280_humidity;BME280_pressure;Samples;Min_cycle;Max_cycle;Signal;HPM_P1;HPM_P2
2021/12/18 00:00:26;;;;;;;22.75;9.48;;;;;;;6.42;100.00;102906.56;6070892;29;20056;-90
2021/12/18 00:03:29;;;;;;;22.35;9.90;;;;;;;6.32;100.00;102899.94;6054462;29;20052;-90
2021/12/18 00:06:31;;;;;;;21.88;9.32;;;;;;;6.42;100.00;102909.97;6066754;29;20044;-90
2021/12/18 00:09:34;;;;;;;19.80;8.75;;;;;;;6.38;100.00;102898.06;6069036;29;20127;-90
2021/12/18 00:12:36;;;;;;;23.02;9.00;;;;;;;6.31;100.00;102898.25;6054977;29;20064;-90
2021/12/18 00:15:38;;;;;;;24.80;9.05;;;;;;;6.26;100.00;102900.94;6070675;29;20044;-90
2021/12/18 00:18:41;;;;;;;23.85;8.95;;;;;;;6.25;100.00;102905.22;6053950;29;20040;-90
2021/12/18 00:21:43;;;;;;;26.95;10.90;;;;;;;6.34;100.00;102906.75;6070387;29;20044;-90
2021/12/18 00:24:45;;;;;;;27.42;9.60;;;;;;;6.35;100.00;102910.16;6054329;29;20063;-90
2021/12/18 00:27:47;;;;;;;19.60;7.68;;;;;;;6.28;100.00;102919.75;6063986;29;20876;-90
2021/12/18 00:30:50;;;;;;;18.02;7.35;;;;;;;6.28;100.00;102917.16;6070597;29;20040;-90
2021/12/18 00:33:53;;;;;;;16.05;7.00;;;;;;;6.20;100.00;102914.75;6069849;29;20040;-90
2021/12/18 00:36:55;;;;;;;13.55;5.28;;;;;;;6.16;100.00;102912.28;6070432;29;20044;-90
2021/12/18 00:39:59;;;;;;;12.43;4.53;;;;;;;6.18;100.00;102919.09;6070544;29;20055;-90
2021/12/18 00:43:20;;;;;;;9.63;3.58;;;;;;;6.24;100.00;102920.69;6054319;29;20088;-90
2021/12/18 00:46:22;;;;;;;8.18;3.75;;;;;;;6.15;100.00;102924.31;6069261;29;20057;-90
2021/12/18 00:49:24;;;;;;;7.22;3.40;;;;;;;6.12;100.00;102932.09;6053932;29;20044;-90
2021/12/18 00:52:28;;;;;;;3.63;1.88;;;;;;;6.14;100.00;102925.19;6055299;29;20048;-90
2021/12/18 00:55:30;;;;;;;4.60;2.50;;;;;;;6.04;100.00;102924.56;6074122;29;20123;-90
2021/12/18 00:58:33;;;;;;;5.72;2.00;;;;;;;6.01;100.00;102924.63;6079546;29;20108;-90
2021/12/18 01:01:36;;;;;;;4.32;2.40;;;;;;;6.04;100.00;102921.13;6072089;29;20566;-90
2021/12/18 01:04:38;;;;;;;5.35;2.95;;;;;;;6.07;100.00;102918.50;6072057;29;20040;-90
2021/12/18 01:07:40;;;;;;;8.65;3.42;;;;;;;6.05;100.00;102922.81;6075124;29;20514;-91
2021/12/18 01:11:04;;;;;;;6.18;3.03;;;;;;;6.15;100.00;102923.47;6074808;29;20049;-90
2021/12/18 01:23:35;;;;;;;8.35;3.78;;;;;;;6.03;100.00;102929.72;6025180;29;20157;-91
2021/12/18 01:26:37;;;;;;;9.05;3.80;;;;;;;6.04;100.00;102924.56;6057984;29;20048;-90
2021/12/18 01:29:40;;;;;;;10.10;4.10;;;;;;;6.12;100.00;102923.53;6058350;29;20100;-90
2021/12/18 01:32:42;;;;;;;10.32;4.47;;;;;;;6.12;100.00;102926.94;6076344;29;20144;-90
2021/12/18 01:35:43;;;;;;;12.80;4.72;;;;;;;6.07;100.00;102930.50;6057936;29;20048;-90
2021/12/18 01:38:46;;;;;;;12.23;4.57;;;;;;;6.04;100.00;102939.97;6057238;29;20614;-90
2021/12/18 01:45:40;;;;;;;14.43;5.07;;;;;;;6.01;100.00;102934.03;6074385;29;20127;-90
2021/12/18 01:52:17;;;;;;;12.63;5.57;;;;;;;6.09;100.00;102939.88;6059975;29;20048;-90
2021/12/18 01:55:31;;;;;;;14.38;6.03;;;;;;;6.03;100.00;102933.13;6056256;29;20048;-90
2021/12/18 01:58:34;;;;;;;20.88;8.35;;;;;;;6.09;100.00;102934.75;6056370;29;20053;-90
2021/12/18 02:01:35;;;;;;;22.27;8.93;;;;;;;6.10;100.00;102923.56;6053196;29;20060;-90
2021/12/18 02:04:37;;;;;;;22.45;8.75;;;;;;;6.14;100.00;102929.50;6073538;29;20049;-90
2021/12/18 02:07:41;;;;;;;21.00;7.38;;;;;;;6.21;100.00;102921.63;6040658;29;20048;-90
2021/12/18 02:10:47;;;;;;;21.95;7.90;;;;;;;6.15;100.00;102916.59;6075939;29;20068;-90
2021/12/18 02:23:38;;;;;;;17.85;7.22;;;;;;;6.06;100.00;102911.63;6075593;29;20430;-90
2021/12/18 02:26:39;;;;;;;15.10;6.82;;;;;;;6.13;100.00;102918.34;6074106;29;20052;-90
2021/12/18 02:29:42;;;;;;;15.52;6.50;;;;;;;6.13;100.00;102915.78;6073115;29;20051;-90
2021/12/18 02:32:44;;;;;;;16.05;6.00;;;;;;;6.18;100.00;102918.25;6056187;29;20641;-90
2021/12/18 02:35:52;;;;;;;13.77;5.93;;;;;;;5.97;100.00;102912.69;6071612;29;20047;-90
2021/12/18 02:42:20;;;;;;;12.73;5.25;;;;;;;6.06;100.00;102905.66;6071193;29;20084;-90
2021/12/18 02:45:22;;;;;;;13.40;5.82;;;;;;;6.07;100.00;102902.22;6071221;29;20078;-90
2021/12/18 02:48:25;;;;;;;17.27;5.20;;;;;;;5.99;100.00;102892.13;6057277;29;20081;-90
2021/12/18 02:51:27;;;;;;;10.88;4.65;;;;;;;5.93;100.00;102884.47;6073100;29;20057;-90
2021/12/18 02:54:29;;;;;;;10.55;4.38;;;;;;;5.94;100.00;102891.38;6072098;29;20053;-90
2021/12/18 02:57:31;;;;;;;12.50;5.30;;;;;;;6.00;100.00;102883.50;6069232;29;20041;-90
2021/12/18 03:00:33;;;;;;;10.65;4.60;;;;;;;6.07;100.00;102892.78;6067914;29;20118;-90
2021/12/18 03:03:38;;;;;;;10.95;4.90;;;;;;;5.97;100.00;102886.16;6068792;29;20044;-90
2021/12/18 03:06:45;;;;;;;12.00;5.50;;;;;;;6.04;100.00;102885.97;6072162;29;20041;-90
2021/12/18 03:23:03;;;;;;;12.43;5.10;;;;;;;6.03;100.00;102871.41;6071094;29;20509;-90
2021/12/18 03:26:05;;;;;;;11.40;5.10;;;;;;;5.98;100.00;102867.25;6071022;29;20049;-90
2021/12/18 03:29:07;;;;;;;13.43;6.22;;;;;;;6.00;100.00;102866.34;6071222;29;20053;-90
2021/12/18 03:32:10;;;;;;;15.57;6.90;;;;;;;5.95;100.00;102863.03;6068264;29;20053;-90
2021/12/18 03:35:13;;;;;;;17.80;6.47;;;;;;;5.89;100.00;102864.84;6069661;29;20160;-90
2021/12/18 03:38:15;;;;;;;15.27;6.40;;;;;;;6.00;100.00;102866.34;6071393;29;20053;-90
2021/12/18 03:41:17;;;;;;;11.93;5.78;;;;;;;5.92;100.00;102867.38;6067423;29;20037;-90
2021/12/18 03:44:20;;;;;;;12.05;6.22;;;;;;;5.98;100.00;102874.97;6070089;29;20036;-90
2021/12/18 03:47:22;;;;;;;11.13;5.65;;;;;;;5.94;100.00;102863.09;6071059;29;20076;-90
2021/12/18 03:50:24;;;;;;;9.80;5.38;;;;;;;5.91;100.00;102871.66;6071391;29;20071;-90
2021/12/18 03:53:26;;;;;;;13.27;6.38;;;;;;;5.94;100.00;102870.81;6071392;29;20426;-90
2021/12/18 03:56:29;;;;;;;12.35;6.38;;;;;;;5.83;100.00;102876.97;6054923;29;20055;-90
2021/12/18 03:59:45;;;;;;;11.70;5.63;;;;;;;5.90;100.00;102874.28;6072838;29;20063;-90
2021/12/18 04:02:46;;;;;;;13.27;6.00;;;;;;;5.92;100.00;102877.66;6067949;29;20040;-90
2021/12/18 04:05:49;;;;;;;12.40;6.03;;;;;;;5.98;100.00;102869.84;6071435;29;20045;-90
2021/12/18 04:08:51;;;;;;;13.30;6.32;;;;;;;5.94;100.00;102873.38;6054474;29;20078;-90
2021/12/18 04:11:53;;;;;;;11.75;5.38;;;;;;;5.80;100.00;102879.59;6052441;29;20044;-90
2021/12/18 04:14:55;;;;;;;13.15;5.95;;;;;;;5.70;100.00;102875.53;6071130;29;20049;-90
2021/12/18 04:17:57;;;;;;;11.55;5.70;;;;;;;5.73;100.00;102872.91;6062339;29;20048;-90
2021/12/18 04:20:59;;;;;;;10.38;5.55;;;;;;;5.68;100.00;102873.88;6065174;29;20136;-90
2021/12/18 04:24:03;;;;;;;12.02;5.50;;;;;;;5.69;100.00;102873.84;6066836;29;20040;-90
2021/12/18 04:27:05;;;;;;;10.27;4.63;;;;;;;5.71;100.00;102871.22;6068409;29;20068;-90
2021/12/18 04:30:07;;;;;;;11.10;5.60;;;;;;;5.75;100.00;102865.16;6070575;29;20059;-90
2021/12/18 04:33:09;;;;;;;11.77;5.75;;;;;;;5.74;100.00;102874.59;6051330;29;20109;-90
2021/12/18 04:36:11;;;;;;;9.60;4.80;;;;;;;5.75;100.00;102870.31;6068942;29;20053;-90
2021/12/18 04:39:14;;;;;;;9.30;4.45;;;;;;;5.65;100.00;102868.81;6067185;29;20091;-90
2021/12/18 04:42:16;;;;;;;9.48;4.70;;;;;;;5.63;100.00;102867.97;6065497;29;20037;-90
2021/12/18 04:45:18;;;;;;;8.43;4.50;;;;;;;5.64;100.00;102862.81;6066745;29;20072;-90
2021/12/18 04:48:20;;;;;;;12.57;5.00;;;;;;;5.74;100.00;102856.63;6067907;29;20419;-90
2021/12/18 04:51:22;;;;;;;9.13;4.50;;;;;;;5.85;100.00;102851.25;6051146;29;20549;-90
2021/12/18 04:54:24;;;;;;;10.57;4.78;;;;;;;5.71;100.00;102855.81;6048785;29;20079;-90
2021/12/18 04:57:27;;;;;;;13.25;5.25;;;;;;;5.65;100.00;102849.09;6068269;29;20052;-90
2021/12/18 05:00:37;;;;;;;9.30;4.40;;;;;;;5.66;100.00;102853.34;6063419;29;20123;-90
2021/12/18 05:03:41;;;;;;;10.65;4.50;;;;;;;5.74;100.00;102854.03;6066196;29;20131;-90
2021/12/18 05:06:46;;;;;;;10.35;5.30;;;;;;;5.74;100.00;102845.47;6064332;29;20184;-90
2021/12/18 05:09:48;;;;;;;12.73;5.38;;;;;;;5.87;100.00;102852.06;6065650;29;20776;-90
2021/12/18 05:12:51;;;;;;;13.32;5.95;;;;;;;5.74;100.00;102848.03;6068015;29;20048;-90
2021/12/18 05:15:53;;;;;;;12.57;5.70;;;;;;;5.69;100.00;102850.72;6052124;29;20051;-90
2021/12/18 05:18:54;;;;;;;11.77;5.45;;;;;;;5.71;100.00;102848.94;6048834;29;20041;-90
2021/12/18 05:21:56;;;;;;;9.10;4.05;;;;;;;5.74;100.00;102858.31;6063512;29;20064;-90
2021/12/18 05:24:58;;;;;;;8.13;3.40;;;;;;;5.66;100.00;102862.78;6050793;29;20291;-90
2021/12/18 05:28:00;;;;;;;7.47;3.05;;;;;;;5.64;100.00;102856.81;6065559;29;20487;-90
2021/12/18 05:31:02;;;;;;;6.78;2.92;;;;;;;5.60;100.00;102856.88;6065129;29;20052;-90
2021/12/18 05:34:05;;;;;;;8.45;3.35;;;;;;;5.54;100.00;102853.59;6062349;29;20052;-90
2021/12/18 05:37:31;;;;;;;8.25;4.05;;;;;;;5.64;100.00;102849.97;6069461;29;20422;-90
2021/12/18 05:40:37;;;;;;;7.15;3.28;;;;;;;5.59;100.00;102857.78;6048303;29;20052;-90
2021/12/18 05:43:39;;;;;;;9.63;3.72;;;;;;;5.68;100.00;102848.19;6066598;29;20049;-90
2021/12/18 05:46:41;;;;;;;8.63;3.88;;;;;;;5.48;100.00;102852.00;6066242;29;20093;-90
2021/12/18 05:49:44;;;;;;;8.63;3.65;;;;;;;5.58;100.00;102855.22;6068229;29;20045;-90
2021/12/18 05:53:00;;;;;;;9.07;4.22;;;;;;;5.47;100.00;102855.47;6075028;29;20040;-90
2021/12/18 05:56:02;;;;;;;11.35;4.28;;;;;;;5.44;100.00;102852.09;6072083;29;20067;-90
2021/12/18 05:59:04;;;;;;;9.88;3.28;;;;;;;5.44;100.00;102852.09;6071073;29;20058;-90
2021/12/18 06:02:07;;;;;;;10.35;4.00;;;;;;;5.47;100.00;102859.75;6071770;29;20573;-90
2021/12/18 06:05:13;;;;;;;8.73;4.18;;;;;;;5.52;100.00;102863.06;6070085;29;20041;-90
2021/12/18 06:08:15;;;;;;;11.88;3.97;;;;;;;5.55;100.00;102857.88;6073315;29;20045;-90
2021/12/18 06:11:20;;;;;;;8.13;3.53;;;;;;;5.56;100.00;102859.53;6074112;29;20048;-90
2021/12/18 06:14:22;;;;;;;9.27;3.70;;;;;;;5.58;100.00;102853.50;6071918;29;20482;-90
2021/12/18 06:17:24;;;;;;;9.63;3.47;;;;;;;5.48;100.00;102854.56;6070653;29;20494;-90
2021/12/18 06:20:27;;;;;;;8.70;3.28;;;;;;;5.53;100.00;102851.91;6053509;29;20060;-90
2021/12/18 06:23:29;;;;;;;7.18;3.10;;;;;;;5.46;100.00;102858.03;6070889;29;20182;-90
2021/12/18 06:26:32;;;;;;;5.50;3.10;;;;;;;5.45;100.00;102856.38;6075196;29;20057;-90
2021/12/18 06:29:34;;;;;;;6.47;2.92;;;;;;;5.46;100.00;102858.03;6073863;29;20052;-90
2021/12/18 06:32:36;;;;;;;6.38;2.90;;;;;;;5.41;100.00;102853.00;6058547;29;20052;-90
2021/12/18 06:35:39;;;;;;;6.75;2.60;;;;;;;5.37;100.00;102843.69;6065808;29;20052;-90
2021/12/18 06:38:40;;;;;;;8.45;3.08;;;;;;;5.35;100.00;102846.25;6070870;29;20354;-90
2021/12/18 06:41:42;;;;;;;7.00;2.92;;;;;;;5.35;100.00;102851.41;6073075;29;20058;-90
2021/12/18 06:44:45;;;;;;;5.85;2.55;;;;;;;5.44;100.00;102850.38;6073566;29;20504;-90
2021/12/18 06:47:47;;;;;;;4.55;2.05;;;;;;;5.50;100.00;102851.97;6071480;29;20051;-90
2021/12/18 06:50:50;;;;;;;6.70;2.67;;;;;;;5.39;100.00;102847.91;6069864;29;20044;-90
2021/12/18 06:53:52;;;;;;;5.75;2.63;;;;;;;5.42;100.00;102853.88;6069642;29;20541;-90
2021/12/18 06:56:54;;;;;;;4.20;2.10;;;;;;;5.42;100.00;102856.44;6070364;29;20155;-90
2021/12/18 06:59:57;;;;;;;4.43;2.55;;;;;;;5.46;100.00;102858.03;6070696;29;20044;-90
2021/12/18 07:03:13;;;;;;;5.10;2.13;;;;;;;5.44;100.00;102852.09;6068964;29;20044;-90
2021/12/18 07:06:15;;;;;;;4.28;2.28;;;;;;;5.47;100.00;102858.03;6067883;29;20049;-90
2021/12/18 07:09:18;;;;;;;4.90;2.13;;;;;;;5.41;100.00;102860.69;6073363;29;20631;-90
2021/12/18 07:12:20;;;;;;;3.97;1.98;;;;;;;5.42;100.00;102859.00;6071862;29;20509;-90
2021/12/18 07:15:22;;;;;;;4.10;2.03;;;;;;;5.55;100.00;102860.44;6071178;29;20060;-90
2021/12/18 07:18:24;;;;;;;5.25;2.03;;;;;;;5.48;100.00;102857.13;6073312;29;20092;-91
2021/12/18 07:21:26;;;;;;;5.78;2.50;;;;;;;5.41;100.00;102868.41;6071778;29;20061;-90
2021/12/18 07:24:28;;;;;;;4.25;2.17;;;;;;;5.46;100.00;102861.44;6074065;29;20045;-90
2021/12/18 07:27:30;;;;;;;4.57;2.40;;;;;;;5.50;100.00;102852.81;6053509;29;20104;-91
2021/12/18 07:30:32;;;;;;;5.72;2.50;;;;;;;5.46;100.00;102858.88;6052843;29;20047;-90
2021/12/18 07:33:37;;;;;;;4.75;2.47;;;;;;;5.51;100.00;102856.22;6070461;29;20131;-90
2021/12/18 07:36:40;;;;;;;5.65;2.63;;;;;;;5.59;100.00;102864.66;6069082;29;20136;-91
2021/12/18 07:39:42;;;;;;;5.72;2.58;;;;;;;5.53;100.00;102865.59;6072687;29;20657;-91
2021/12/18 07:42:44;;;;;;;6.57;2.83;;;;;;;5.56;100.00;102862.94;6069582;29;20637;-90
2021/12/18 07:45:53;;;;;;;5.45;2.78;;;;;;;5.54;100.00;102864.72;6069699;29;20129;-91
2021/12/18 07:48:55;;;;;;;8.68;3.28;;;;;;;5.67;100.00;102859.34;6058514;29;20414;-91
2021/12/18 07:52:02;;;;;;;6.80;2.45;;;;;;;5.61;100.00;102866.31;6073380;29;20048;-91
2021/12/18 07:55:04;;;;;;;6.78;3.22;;;;;;;5.64;100.00;102861.97;6056128;29;20064;-91
2021/12/18 07:58:10;;;;;;;4.82;2.78;;;;;;;5.68;100.00;102872.16;6071157;29;20518;-91
2021/12/18 08:01:12;;;;;;;6.03;3.00;;;;;;;5.69;100.00;102853.31;6061293;29;20103;-91
2021/12/18 08:04:14;;;;;;;6.07;3.08;;;;;;;5.73;100.00;102860.03;6054435;29;20123;-91
2021/12/18 08:07:17;;;;;;;7.68;3.58;;;;;;;5.81;100.00;102860.75;6073771;29;20072;-90
2021/12/18 08:10:18;;;;;;;5.45;2.55;;;;;;;5.72;100.00;102863.50;6055953;29;20067;-91
2021/12/18 08:13:21;;;;;;;5.63;2.78;;;;;;;5.76;100.00;102860.00;6072099;29;20040;-91
2021/12/18 08:16:23;;;;;;;7.95;3.10;;;;;;;5.77;100.00;102859.13;6070533;29;20048;-91
2021/12/18 08:19:25;;;;;;;8.25;3.47;;;;;;;5.78;100.00;102854.81;6070200;29;20048;-91
2021/12/18 08:22:28;;;;;;;5.30;2.88;;;;;;;5.79;100.00;102857.38;6073413;29;20044;-91
2021/12/18 08:25:31;;;;;;;4.95;2.67;;;;;;;5.74;100.00;102854.03;6058528;29;20059;-90
2021/12/18 08:28:34;;;;;;;4.60;2.50;;;;;;;5.73;100.00;102857.47;6072681;29;20180;-90
2021/12/18 08:31:35;;;;;;;7.60;3.13;;;;;;;5.72;100.00;102857.53;6058350;29;20051;-91
2021/12/18 08:34:38;;;;;;;6.05;2.28;;;;;;;5.75;100.00;102863.44;6054282;29;20075;-91
2021/12/18 08:37:40;;;;;;;5.30;2.45;;;;;;;5.74;100.00;102864.31;6050478;29;20045;-91
2021/12/18 08:40:43;;;;;;;6.18;2.90;;;;;;;5.77;100.00;102856.53;6070887;29;20060;-91
2021/12/18 08:43:45;;;;;;;5.95;2.83;;;;;;;5.77;100.00;102853.97;6054780;29;20070;-90
2021/12/18 08:46:47;;;;;;;4.38;2.40;;;;;;;5.85;100.00;102861.53;6061791;29;20040;-91
2021/12/18 08:49:50;;;;;;;3.25;1.90;;;;;;;5.82;100.00;102864.16;6072663;29;20068;-91
2021/12/18 08:52:52;;;;;;;22.15;2.72;;;;;;;5.81;100.00;102855.63;6074205;29;20048;-91
2021/12/18 08:55:54;;;;;;;6.00;2.72;;;;;;;5.88;100.00;102847.75;6058126;29;21504;-91
2021/12/18 08:58:58;;;;;;;5.90;2.75;;;;;;;5.82;100.00;102851.31;6069808;29;20044;-91
2021/12/18 09:02:00;;;;;;;6.78;2.65;;;;;;;5.87;100.00;102848.66;6067295;29;20048;-91
2021/12/18 09:05:03;;;;;;;6.30;2.72;;;;;;;5.91;100.00;102848.53;6065943;29;20037;-91
2021/12/18 09:08:18;;;;;;;6.00;3.28;;;;;;;5.87;100.00;102849.47;6060729;29;20152;-91
2021/12/18 09:11:21;;;;;;;5.95;2.60;;;;;;;5.85;100.00;102851.25;6063313;29;20038;-91
2021/12/18 09:14:23;;;;;;;7.50;2.83;;;;;;;5.82;100.00;102848.75;6064395;29;20132;-91
2021/12/18 09:17:25;;;;;;;5.07;2.03;;;;;;;5.93;100.00;102851.06;6071041;29;20060;-91
2021/12/18 09:20:27;;;;;;;4.07;2.10;;;;;;;5.92;100.00;102845.09;6071688;29;20054;-91
2021/12/18 09:23:29;;;;;;;3.83;1.98;;;;;;;5.85;100.00;102847.81;6074573;29;20044;-91
2021/12/18 09:26:32;;;;;;;4.53;2.10;;;;;;;5.82;100.00;102852.16;6070989;29;20057;-90
2021/12/18 09:29:34;;;;;;;3.95;2.17;;;;;;;5.88;100.00;102855.47;6073136;29;20041;-91
2021/12/18 09:32:37;;;;;;;3.30;1.90;;;;;;;5.81;100.00;102847.91;6077219;29;20521;-91
2021/12/18 09:35:41;;;;;;;4.55;2.30;;;;;;;5.85;100.00;102842.69;6077186;29;20059;-91
2021/12/18 09:38:43;;;;;;;3.58;2.00;;;;;;;5.95;100.00;102847.63;6075438;29;20048;-91
2021/12/18 09:41:58;;;;;;;2.50;1.85;;;;;;;6.01;100.00;102850.06;6077270;29;20041;-91
2021/12/18 09:45:00;;;;;;;4.82;2.05;;;;;;;5.98;100.00;102844.13;6070649;29;20085;-92
2021/12/18 09:48:05;;;;;;;4.97;1.95;;;;;;;5.94;100.00;102852.81;6074319;29;20052;-91
2021/12/18 09:51:12;;;;;;;3.30;2.00;;;;;;;5.95;100.00;102844.19;6074915;29;20620;-92
2021/12/18 09:54:15;;;;;;;3.75;1.75;;;;;;;5.97;100.00;102835.56;6057299;29;20093;-91
2021/12/18 09:57:18;;;;;;;5.55;2.58;;;;;;;5.95;100.00;102847.63;6062014;29;20041;-91
2021/12/18 10:00:24;;;;;;;4.38;2.35;;;;;;;5.97;100.00;102834.75;6061299;29;20544;-91
2021/12/18 10:03:57;;;;;;;4.85;1.98;;;;;;;6.03;100.00;102829.44;6077972;29;20052;-92
2021/12/18 10:07:14;;;;;;;4.20;2.00;;;;;;;5.91;100.00;102832.25;6074625;29;20047;-91
2021/12/18 10:10:16;;;;;;;5.13;2.33;;;;;;;5.95;100.00;102824.47;6075853;29;20040;-91
2021/12/18 10:13:18;;;;;;;3.22;1.90;;;;;;;6.02;100.00;102831.19;6053029;29;20378;-91
2021/12/18 10:16:28;;;;;;;5.03;2.15;;;;;;;5.97;100.00;102817.59;6068386;29;20059;-89
2021/12/18 10:19:35;;;;;;;4.43;1.90;;;;;;;5.94;100.00;102809.94;6077819;29;20040;-92
2021/12/18 10:22:57;;;;;;;7.38;2.38;;;;;;;5.98;100.00;102810.72;6076711;29;20036;-91
2021/12/18 10:25:59;;;;;;;4.53;2.15;;;;;;;6.13;100.00;102804.38;6063545;29;20046;-91
2021/12/18 10:29:21;;;;;;;4.50;2.17;;;;;;;6.12;100.00;102803.53;6056591;29;20075;-91
2021/12/18 10:32:24;;;;;;;4.45;2.33;;;;;;;6.15;100.00;102798.31;6074414;29;20053;-91
2021/12/18 10:35:52;;;;;;;3.55;1.85;;;;;;;5.98;100.00;102806.41;6075218;29;20053;-91
2021/12/18 10:38:55;;;;;;;3.20;1.92;;;;;;;6.12;100.00;102795.81;6075235;29;20049;-91
2021/12/18 10:41:58;;;;;;;3.70;2.15;;;;;;;6.12;100.00;102800.97;6058456;29;20051;-91
2021/12/18 10:45:14;;;;;;;5.28;1.98;;;;;;;6.12;100.00;102793.25;6074774;29;20072;-91
2021/12/18 10:48:17;;;;;;;4.80;2.00;;;;;;;6.14;100.00;102796.63;6058108;29;20041;-91
2021/12/18 10:51:27;;;;;;;3.83;1.70;;;;;;;6.24;100.00;102780.09;6073812;29;20056;-91
2021/12/18 10:54:36;;;;;;;4.68;2.17;;;;;;;6.24;100.00;102777.53;6074128;29;20057;-91
2021/12/18 10:57:50;;;;;;;2.92;1.75;;;;;;;6.34;100.00;102774.72;6074592;29;20053;-91
2021/12/18 11:01:13;;;;;;;3.20;1.73;;;;;;;6.36;100.00;102772.94;6074129;29;20049;-91
2021/12/18 11:04:29;;;;;;;4.20;2.05;;;;;;;6.41;100.00;102774.53;6074343;29;20060;-91
2021/12/18 11:07:41;;;;;;;4.50;2.08;;;;;;;6.34;100.00;102770.44;6057255;29;20131;-91
2021/12/18 11:10:54;;;;;;;2.85;1.70;;;;;;;6.42;100.00;102763.34;6074607;29;20642;-91
2021/12/18 11:14:25;;;;;;;3.17;1.98;;;;;;;6.38;100.00;102763.47;6061167;29;20506;-91
2021/12/18 11:17:27;;;;;;;3.47;1.73;;;;;;;6.39;100.00;102765.16;6074307;29;20422;-91
2021/12/18 11:20:29;;;;;;;2.03;1.50;;;;;;;6.40;100.00;102762.53;6057895;29;20056;-91
2021/12/18 11:23:39;;;;;;;4.68;1.92;;;;;;;6.46;100.00;102756.41;6074359;29;20128;-91
2021/12/18 11:26:57;;;;;;;2.88;1.70;;;;;;;6.45;100.00;102752.13;6074843;29;20107;-91
2021/12/18 11:30:21;;;;;;;3.33;1.63;;;;;;;6.40;100.00;102759.13;6074226;29;20044;-91
2021/12/18 11:33:23;;;;;;;2.30;1.50;;;;;;;6.39;100.00;102748.00;6074425;29;20044;-91
2021/12/18 11:36:33;;;;;;;2.00;1.30;;;;;;;6.36;100.00;102753.22;6074183;29;20557;-91
2021/12/18 11:39:36;;;;;;;2.78;1.60;;;;;;;6.36;100.00;102748.09;6073766;29;20055;-91
2021/12/18 11:42:38;;;;;;;2.05;1.48;;;;;;;6.28;100.00;102736.28;6057448;29;20771;-91
2021/12/18 11:45:40;;;;;;;1.65;1.10;;;;;;;6.18;100.00;102730.53;6073625;29;20717;-91
2021/12/18 11:49:04;;;;;;;1.88;1.33;;;;;;;6.41;100.00;102735.09;6073613;29;20549;-91
2021/12/18 11:52:06;;;;;;;1.63;1.10;;;;;;;6.46;100.00;102712.69;6073276;29;20052;-91
2021/12/18 11:55:09;;;;;;;4.30;1.42;;;;;;;6.38;100.00;102719.75;6056296;29;20056;-91
2021/12/18 11:58:13;;;;;;;3.15;1.20;;;;;;;6.41;100.00;102723.09;6046782;29;20049;-91
2021/12/18 12:01:25;;;;;;;2.65;1.48;;;;;;;6.40;100.00;102718.81;6070991;29;20048;-91
2021/12/18 12:04:27;;;;;;;3.05;1.52;;;;;;;6.37;100.00;102718.06;6073457;29;20043;-91
2021/12/18 12:07:29;;;;;;;3.47;1.60;;;;;;;6.48;100.00;102716.03;6049376;29;20134;-91
2021/12/18 12:13:51;;;;;;;2.72;1.60;;;;;;;6.39;100.00;102714.56;6055875;29;20051;-91
2021/12/18 12:17:25;;;;;;;1.92;1.60;;;;;;;6.42;100.00;102718.78;6056537;29;20612;-91
2021/12/18 12:20:39;;;;;;;2.42;1.70;;;;;;;6.40;100.00;102715.41;6056604;29;20499;-91
2021/12/18 12:24:01;;;;;;;2.17;1.38;;;;;;;6.31;100.00;102707.91;6040618;29;20107;-91
2021/12/18 12:27:37;;;;;;;2.50;1.73;;;;;;;6.37;100.00;102708.59;6073417;29;20410;-91
2021/12/18 12:31:06;;;;;;;2.75;1.55;;;;;;;6.42;100.00;102703.34;6072528;29;20048;-91
2021/12/18 12:34:33;;;;;;;2.60;1.88;;;;;;;6.27;100.00;102708.91;6056497;29;20044;-91
2021/12/18 12:37:46;;;;;;;3.75;1.75;;;;;;;6.28;100.00;102703.69;6055348;29;20056;-91
2021/12/18 12:40:48;;;;;;;4.40;1.95;;;;;;;6.25;100.00;102696.91;6072422;29;20495;-91
2021/12/18 12:43:51;;;;;;;3.30;2.00;;;;;;;6.32;100.00;102701.91;6055985;29;20049;-91
2021/12/18 12:47:11;;;;;;;4.28;1.95;;;;;;;6.32;100.00;102682.16;6072960;29;20172;-91
2021/12/18 12:50:19;;;;;;;4.13;2.08;;;;;;;6.41;100.00;102686.22;6059540;29;20048;-91
2021/12/18 12:53:21;;;;;;;3.17;1.98;;;;;;;6.27;100.00;102691.72;6063515;29;20052;-91
2021/12/18 12:56:25;;;;;;;3.22;1.73;;;;;;;6.30;100.00;102673.63;6072570;29;20135;-91
2021/12/18 12:59:27;;;;;;;2.80;1.70;;;;;;;6.29;100.00;102668.56;6055602;29;20204;-91
2021/12/18 13:02:32;;;;;;;2.78;2.03;;;;;;;6.28;100.00;102669.41;6055946;29;20048;-91
2021/12/18 13:05:46;;;;;;;4.15;2.00;;;;;;;6.29;100.00;102671.13;6043749;29;20638;-91
2021/12/18 13:08:50;;;;;;;3.40;1.95;;;;;;;6.34;100.00;102677.81;6072752;29;20053;-91
2021/12/18 13:12:03;;;;;;;2.78;2.05;;;;;;;6.35;100.00;102665.81;6072246;29;20064;-91
2021/12/18 13:15:05;;;;;;;2.80;1.75;;;;;;;6.34;100.00;102672.69;6072296;29;20049;-91
2021/12/18 13:18:09;;;;;;;3.65;2.10;;;;;;;6.41;100.00;102665.63;6072725;29;20135;-91
2021/12/18 13:21:19;;;;;;;4.28;2.22;;;;;;;6.33;100.00;102667.56;6055752;29;20040;-91
2021/12/18 13:24:21;;;;;;;2.97;1.80;;;;;;;6.33;100.00;102670.13;6055716;29;20048;-91
2021/12/18 13:27:23;;;;;;;4.03;2.30;;;;;;;6.37;100.00;102664.03;6055471;29;20052;-91
2021/12/18 13:30:25;;;;;;;3.55;2.03;;;;;;;6.31;100.00;102659.91;6055779;29;20045;-91
2021/12/18 13:33:30;;;;;;;3.13;1.92;;;;;;;6.35;100.00;102664.06;6055870;29;20056;-92
2021/12/18 13:36:54;;;;;;;3.03;1.95;;;;;;;6.38;100.00;102663.16;6072463;29;20055;-92
2021/12/18 13:39:56;;;;;;;2.90;1.88;;;;;;;6.40;100.00;102656.25;6055689;29;20049;-91
2021/12/18 13:43:20;;;;;;;3.30;1.80;;;;;;;6.37;100.00;102654.59;6065739;29;20053;-92
2021/12/18 13:46:28;;;;;;;2.20;1.55;;;;;;;6.26;100.00;102648.91;6069848;29;20188;-91
2021/12/18 13:49:57;;;;;;;3.33;2.03;;;;;;;6.18;100.00;102633.66;6072694;29;20073;-91
2021/12/18 13:53:12;;;;;;;4.38;2.42;;;;;;;6.20;100.00;102637.03;6046108;29;20040;-92
2021/12/18 13:56:16;;;;;;;3.83;2.08;;;;;;;6.13;100.00;102640.66;6072906;29;20483;-92
2021/12/18 13:59:19;;;;;;;2.45;1.70;;;;;;;6.23;100.00;102629.22;6072602;29;20053;-92
2021/12/18 14:02:22;;;;;;;2.50;1.75;;;;;;;6.22;100.00;102635.28;6074772;29;20048;-92
2021/12/18 14:05:25;;;;;;;3.35;1.95;;;;;;;6.26;100.00;102623.19;6060501;29;20052;-92
2021/12/18 14:08:29;;;;;;;3.50;2.10;;;;;;;6.18;100.00;102623.38;6077017;29;20048;-92
2021/12/18 14:11:38;;;;;;;2.70;2.08;;;;;;;6.17;100.00;102626.00;6076424;29;20080;-91
2021/12/18 14:14:48;;;;;;;2.72;1.88;;;;;;;6.25;100.00;102624.06;6076241;29;20126;-91
2021/12/18 14:17:50;;;;;;;2.72;1.80;;;;;;;6.23;100.00;102630.97;6059668;29;20053;-91
2021/12/18 14:20:52;;;;;;;2.40;1.98;;;;;;;6.25;100.00;102631.78;6120740;23;20071;-91
2021/12/18 14:23:58;;;;;;;2.50;2.08;;;;;;;6.23;100.00;102633.53;6072808;29;20048;-91
2021/12/18 14:27:04;;;;;;;3.42;2.22;;;;;;;6.27;100.00;102634.31;6075697;29;20132;-91
2021/12/18 14:30:21;;;;;;;4.63;2.20;;;;;;;6.19;100.00;102632.78;6076135;29;20184;-91
2021/12/18 14:33:23;;;;;;;5.78;2.70;;;;;;;6.23;100.00;102636.09;6047867;29;20135;-91
2021/12/18 14:36:53;;;;;;;3.42;2.22;;;;;;;6.19;100.00;102635.34;6058730;29;20052;-91
2021/12/18 14:39:57;;;;;;;4.28;2.30;;;;;;;6.19;100.00;102630.22;6057560;29;20119;-91
2021/12/18 14:43:13;;;;;;;4.53;2.78;;;;;;;6.18;100.00;102627.69;6071418;29;20044;-91
2021/12/18 14:46:39;;;;;;;4.22;2.67;;;;;;;6.32;100.00;102629.88;6071458;29;20059;-91
2021/12/18 14:50:17;;;;;;;5.00;2.92;;;;;;;6.27;100.00;102618.88;6061808;29;20068;-91
2021/12/18 14:53:21;;;;;;;4.95;3.25;;;;;;;6.23;100.00;102629.22;6053636;29;20044;-91
2021/12/18 14:56:23;;;;;;;4.50;3.08;;;;;;;6.23;100.00;102630.97;6070512;29;20052;-91
2021/12/18 14:59:26;;;;;;;4.50;2.95;;;;;;;6.16;100.00;102627.72;6064140;29;20108;-91
2021/12/18 15:02:28;;;;;;;6.93;3.08;;;;;;;6.24;100.00;102628.38;6070183;29;20041;-92
2021/12/18 15:05:54;;;;;;;4.97;3.25;;;;;;;6.29;100.00;102623.09;6065563;29;20048;-91